sensor_id;sensor_type;location;lat;lon;timestamp;P1;durP1;ratioP1;P2;durP2;ratioP2
71202;SDS011;58929;47.490;19.090;2022-11-20T00:00:34;38.88;;;21.13;;
71202;SDS011;58929;47.490;19.090;2022-11-20T00:03:02;38.08;;;21.05;;
71202;SDS011;58929;47.490;19.090;2022-11-20T00:05:31;39.97;;;22.05;;
71202;SDS011;58929;47.490;19.090;2022-11-20T00:07:59;36.97;;;22.10;;
71202;SDS011;58929;47.490;19.090;2022-11-20T00:12:54;40.65;;;22.80;;
71202;SDS011;58929;47.490;19.090;2022-11-20T00:17:51;43.00;;;22.92;;
71202;SDS011;58929;47.490;19.090;2022-11-20T00:20:19;39.75;;;22.88;;
71202;SDS011;58929;47.490;19.090;2022-11-20T00:25:14;40.58;;;23.02;;
71202;SDS011;58929;47.490;19.090;2022-11-20T00:30:09;44.70;;;24.13;;
71202;SDS011;58929;47.490;19.090;2022-11-20T00:32:40;40.90;;;24.38;;
71202;SDS011;58929;47.490;19.090;2022-11-20T00:37:37;39.70;;;22.85;;
71202;SDS011;58929;47.490;19.090;2022-11-20T00:40:05;38.90;;;23.00;;
71202;SDS011;58929;47.490;19.090;2022-11-20T00:42:33;41.80;;;23.80;;
71202;SDS011;58929;47.490;19.090;2022-11-20T00:45:01;38.63;;;22.75;;
71202;SDS011;58929;47.490;19.090;2022-11-20T00:47:29;42.85;;;23.25;;
71202;SDS011;58929;47.490;19.090;2022-11-20T00:49:56;44.08;;;22.65;;
71202;SDS011;58929;47.490;19.090;2022-11-20T00:54:53;43.38;;;23.15;;
71202;SDS011;58929;47.490;19.090;2022-11-20T00:57:21;46.58;;;23.05;;
71202;SDS011;58929;47.490;19.090;2022-11-20T01:02:16;42.90;;;23.65;;
71202;SDS011;58929;47.490;19.090;2022-11-20T01:07:14;43.75;;;25.60;;
71202;SDS011;58929;47.490;19.090;2022-11-20T01:09:42;40.50;;;23.13;;
71202;SDS011;58929;47.490;19.090;2022-11-20T01:14:38;49.20;;;26.23;;
71202;SDS011;58929;47.490;19.090;2022-11-20T01:17:06;53.42;;;27.40;;
71202;SDS011;58929;47.490;19.090;2022-11-20T01:22:01;53.15;;;27.02;;
71202;SDS011;58929;47.490;19.090;2022-11-20T01:24:29;59.83;;;29.40;;
71202;SDS011;58929;47.490;19.090;2022-11-20T01:29:24;54.92;;;27.75;;
71202;SDS011;58929;47.490;19.090;2022-11-20T01:34:21;59.05;;;29.00;;
71202;SDS011;58929;47.490;19.090;2022-11-20T01:36:49;57.28;;;29.58;;
71202;SDS011;58929;47.490;19.090;2022-11-20T01:39:18;50.75;;;27.58;;
71202;SDS011;58929;47.490;19.090;2022-11-20T01:41:47;51.03;;;26.75;;
71202;SDS011;58929;47.490;19.090;2022-11-20T01:44:44;49.83;;;27.45;;
71202;SDS011;58929;47.490;19.090;2022-11-20T01:47:13;62.47;;;32.17;;
71202;SDS011;58929;47.490;19.090;2022-11-20T01:49:44;62.08;;;30.27;;
71202;SDS011;58929;47.490;19.090;2022-11-20T01:52:15;61.60;;;29.65;;
71202;SDS011;58929;47.490;19.090;2022-11-20T01:54:44;62.95;;;32.22;;
71202;SDS011;58929;47.490;19.090;2022-11-20T01:57:14;60.60;;;31.35;;
71202;SDS011;58929;47.490;19.090;2022-11-20T01:59:43;63.13;;;31.67;;
71202;SDS011;58929;47.490;19.090;2022-11-20T02:02:17;60.53;;;30.88;;
71202;SDS011;58929;47.490;19.090;2022-11-20T02:04:46;69.25;;;34.20;;
71202;SDS011;58929;47.490;19.090;2022-11-20T02:07:14;64.30;;;32.70;;
71202;SDS011;58929;47.490;19.090;2022-11-20T02:09:42;61.90;;;33.05;;
71202;SDS011;58929;47.490;19.090;2022-11-20T02:12:10;61.63;;;31.58;;
71202;SDS011;58929;47.490;19.090;2022-11-20T02:14:59;60.13;;;30.00;;
71202;SDS011;58929;47.490;19.090;2022-11-20T02:17:25;62.37;;;31.07;;
71202;SDS011;58929;47.490;19.090;2022-11-20T02:19:54;65.85;;;32.50;;
71202;SDS011;58929;47.490;19.090;2022-11-20T02:22:23;63.20;;;31.10;;
71202;SDS011;58929;47.490;19.090;2022-11-20T02:24:53;68.88;;;33.40;;
71202;SDS011;58929;47.490;19.090;2022-11-20T02:27:21;59.22;;;30.80;;
71202;SDS011;58929;47.490;19.090;2022-11-20T02:32:20;66.93;;;33.53;;
71202;SDS011;58929;47.490;19.090;2022-11-20T02:34:48;63.47;;;30.48;;
71202;SDS011;58929;47.490;19.090;2022-11-20T02:39:43;60.75;;;30.20;;
71202;SDS011;58929;47.490;19.090;2022-11-20T02:42:13;58.10;;;30.52;;
71202;SDS011;58929;47.490;19.090;2022-11-20T02:44:40;64.00;;;32.58;;
71202;SDS011;58929;47.490;19.090;2022-11-20T02:47:08;63.58;;;32.15;;
71202;SDS011;58929;47.490;19.090;2022-11-20T02:49:36;61.47;;;31.73;;
71202;SDS011;58929;47.490;19.090;2022-11-20T02:54:32;57.95;;;29.02;;
71202;SDS011;58929;47.490;19.090;2022-11-20T02:59:28;59.75;;;30.77;;
71202;SDS011;58929;47.490;19.090;2022-11-20T03:01:56;54.42;;;28.48;;
71202;SDS011;58929;47.490;19.090;2022-11-20T03:06:51;54.83;;;29.55;;
71202;SDS011;58929;47.490;19.090;2022-11-20T03:09:19;50.17;;;27.20;;
71202;SDS011;58929;47.490;19.090;2022-11-20T03:11:47;64.95;;;32.22;;
71202;SDS011;58929;47.490;19.090;2022-11-20T03:16:44;58.88;;;28.58;;
71202;SDS011;58929;47.490;19.090;2022-11-20T03:19:12;53.63;;;29.88;;
71202;SDS011;58929;47.490;19.090;2022-11-20T03:21:40;59.00;;;30.65;;
71202;SDS011;58929;47.490;19.090;2022-11-20T03:26:35;57.15;;;29.42;;
71202;SDS011;58929;47.490;19.090;2022-11-20T03:29:03;50.15;;;27.67;;
71202;SDS011;58929;47.490;19.090;2022-11-20T03:31:32;50.30;;;27.17;;
71202;SDS011;58929;47.490;19.090;2022-11-20T03:34:02;49.45;;;26.23;;
71202;SDS011;58929;47.490;19.090;2022-11-20T03:36:30;48.65;;;26.40;;
71202;SDS011;58929;47.490;19.090;2022-11-20T03:38:58;52.40;;;27.85;;
71202;SDS011;58929;47.490;19.090;2022-11-20T03:41:27;52.03;;;26.75;;
71202;SDS011;58929;47.490;19.090;2022-11-20T03:43:55;49.70;;;27.67;;
71202;SDS011;58929;47.490;19.090;2022-11-20T03:46:23;45.45;;;26.00;;
71202;SDS011;58929;47.490;19.090;2022-11-20T03:48:51;47.47;;;26.27;;
71202;SDS011;58929;47.490;19.090;2022-11-20T03:51:21;43.47;;;26.40;;
71202;SDS011;58929;47.490;19.090;2022-11-20T03:53:50;48.30;;;27.30;;
71202;SDS011;58929;47.490;19.090;2022-11-20T03:56:18;46.95;;;26.00;;
71202;SDS011;58929;47.490;19.090;2022-11-20T03:58:46;47.75;;;25.67;;
71202;SDS011;58929;47.490;19.090;2022-11-20T04:01:15;53.78;;;29.48;;
71202;SDS011;58929;47.490;19.090;2022-11-20T04:03:43;46.17;;;26.15;;
71202;SDS011;58929;47.490;19.090;2022-11-20T04:06:12;48.00;;;25.60;;
71202;SDS011;58929;47.490;19.090;2022-11-20T04:08:42;52.40;;;28.10;;
71202;SDS011;58929;47.490;19.090;2022-11-20T04:11:14;47.20;;;27.02;;
71202;SDS011;58929;47.490;19.090;2022-11-20T04:13:42;52.00;;;29.10;;
71202;SDS011;58929;47.490;19.090;2022-11-20T04:16:13;53.13;;;30.60;;
71202;SDS011;58929;47.490;19.090;2022-11-20T04:18:40;51.00;;;28.10;;
71202;SDS011;58929;47.490;19.090;2022-11-20T04:21:09;54.70;;;28.77;;
71202;SDS011;58929;47.490;19.090;2022-11-20T04:23:38;51.75;;;28.92;;
71202;SDS011;58929;47.490;19.090;2022-11-20T04:26:08;55.55;;;30.35;;
71202;SDS011;58929;47.490;19.090;2022-11-20T04:28:36;56.08;;;29.13;;
71202;SDS011;58929;47.490;19.090;2022-11-20T04:31:04;53.63;;;30.20;;
71202;SDS011;58929;47.490;19.090;2022-11-20T04:33:32;53.58;;;28.85;;
71202;SDS011;58929;47.490;19.090;2022-11-20T04:36:04;52.63;;;27.13;;
71202;SDS011;58929;47.490;19.090;2022-11-20T04:38:32;52.83;;;28.30;;
71202;SDS011;58929;47.490;19.090;2022-11-20T04:41:00;50.20;;;27.75;;
71202;SDS011;58929;47.490;19.090;2022-11-20T04:43:30;47.15;;;26.48;;
71202;SDS011;58929;47.490;19.090;2022-11-20T04:45:59;51.83;;;28.50;;
71202;SDS011;58929;47.490;19.090;2022-11-20T04:48:27;54.78;;;30.50;;
71202;SDS011;58929;47.490;19.090;2022-11-20T04:50:56;56.53;;;31.00;;
71202;SDS011;58929;47.490;19.090;2022-11-20T04:53:23;53.08;;;29.88;;
71202;SDS011;58929;47.490;19.090;2022-11-20T04:55:51;54.45;;;30.40;;
71202;SDS011;58929;47.490;19.090;2022-11-20T05:00:48;61.13;;;32.40;;
71202;SDS011;58929;47.490;19.090;2022-11-20T05:03:18;63.45;;;32.90;;
71202;SDS011;58929;47.490;19.090;2022-11-20T05:08:13;57.40;;;31.73;;
71202;SDS011;58929;47.490;19.090;2022-11-20T05:10:41;55.53;;;30.45;;
71202;SDS011;58929;47.490;19.090;2022-11-20T05:13:09;55.20;;;30.75;;
71202;SDS011;58929;47.490;19.090;2022-11-20T05:15:37;50.42;;;28.77;;
71202;SDS011;58929;47.490;19.090;2022-11-20T05:18:06;53.53;;;28.83;;
71202;SDS011;58929;47.490;19.090;2022-11-20T05:20:34;51.85;;;28.65;;
71202;SDS011;58929;47.490;19.090;2022-11-20T05:23:02;53.58;;;28.67;;
71202;SDS011;58929;47.490;19.090;2022-11-20T05:27:57;54.88;;;28.55;;
71202;SDS011;58929;47.490;19.090;2022-11-20T05:32:53;54.58;;;30.10;;
71202;SDS011;58929;47.490;19.090;2022-11-20T05:35:22;52.25;;;29.17;;
71202;SDS011;58929;47.490;19.090;2022-11-20T05:37:50;51.15;;;28.58;;
71202;SDS011;58929;47.490;19.090;2022-11-20T05:40:17;54.05;;;28.67;;
71202;SDS011;58929;47.490;19.090;2022-11-20T05:45:13;49.53;;;26.80;;
71202;SDS011;58929;47.490;19.090;2022-11-20T05:47:40;49.92;;;26.80;;
71202;SDS011;58929;47.490;19.090;2022-11-20T05:50:08;52.83;;;28.73;;
71202;SDS011;58929;47.490;19.090;2022-11-20T05:52:37;49.30;;;27.30;;
71202;SDS011;58929;47.490;19.090;2022-11-20T05:55:06;46.05;;;26.15;;
71202;SDS011;58929;47.490;19.090;2022-11-20T05:57:33;51.10;;;27.00;;
71202;SDS011;58929;47.490;19.090;2022-11-20T06:00:02;49.63;;;25.42;;
71202;SDS011;58929;47.490;19.090;2022-11-20T06:02:30;45.00;;;26.27;;
71202;SDS011;58929;47.490;19.090;2022-11-20T06:04:58;44.30;;;25.80;;
71202;SDS011;58929;47.490;19.090;2022-11-20T06:09:54;46.10;;;24.75;;
71202;SDS011;58929;47.490;19.090;2022-11-20T06:12:22;43.33;;;24.38;;
71202;SDS011;58929;47.490;19.090;2022-11-20T06:14:50;43.13;;;25.45;;
71202;SDS011;58929;47.490;19.090;2022-11-20T06:19:45;47.33;;;24.10;;
71202;SDS011;58929;47.490;19.090;2022-11-20T06:22:13;38.58;;;23.10;;
71202;SDS011;58929;47.490;19.090;2022-11-20T06:24:41;43.95;;;25.02;;
71202;SDS011;58929;47.490;19.090;2022-11-20T06:29:38;42.90;;;23.65;;
71202;SDS011;58929;47.490;19.090;2022-11-20T06:32:06;41.92;;;23.65;;
71202;SDS011;58929;47.490;19.090;2022-11-20T06:37:01;42.80;;;24.55;;
71202;SDS011;58929;47.490;19.090;2022-11-20T06:41:56;42.05;;;22.77;;
71202;SDS011;58929;47.490;19.090;2022-11-20T06:44:24;44.45;;;22.98;;
71202;SDS011;58929;47.490;19.090;2022-11-20T06:46:54;44.63;;;23.90;;
71202;SDS011;58929;47.490;19.090;2022-11-20T06:49:21;42.33;;;22.98;;
71202;SDS011;58929;47.490;19.090;2022-11-20T06:51:50;42.80;;;24.52;;
71202;SDS011;58929;47.490;19.090;2022-11-20T06:54:18;42.88;;;23.48;;
71202;SDS011;58929;47.490;19.090;2022-11-20T06:56:46;44.65;;;24.98;;
71202;SDS011;58929;47.490;19.090;2022-11-20T06:59:14;42.47;;;23.92;;
71202;SDS011;58929;47.490;19.090;2022-11-20T07:01:42;39.90;;;22.77;;
71202;SDS011;58929;47.490;19.090;2022-11-20T07:06:38;40.45;;;23.40;;
71202;SDS011;58929;47.490;19.090;2022-11-20T07:09:06;39.92;;;22.70;;
71202;SDS011;58929;47.490;19.090;2022-11-20T07:11:38;39.22;;;23.00;;
71202;SDS011;58929;47.490;19.090;2022-11-20T07:16:33;42.13;;;21.67;;
71202;SDS011;58929;47.490;19.090;2022-11-20T07:19:01;38.63;;;21.88;;
